createdAt,value
2022-12-25T00:01:15.784Z,100412.67
2022-12-25T00:04:48.656Z,100412.67
2022-12-25T00:07:17.091Z,100414.55
2022-12-25T00:09:45.835Z,100418.14
2022-12-25T00:12:14.234Z,100424.45
2022-12-25T00:14:42.840Z,100429.89
2022-12-25T00:17:11.335Z,100431.73
2022-12-25T00:19:39.795Z,100437.87
2022-12-25T00:22:08.220Z,100441.99
2022-12-25T00:24:36.528Z,100443.39
2022-12-25T00:27:05.086Z,100447.55
2022-12-25T00:29:33.428Z,100451.50
2022-12-25T00:32:02.296Z,100449.41
2022-12-25T00:34:30.722Z,100441.80
2022-12-25T00:36:59.143Z,100440.06
2022-12-25T00:39:27.563Z,100438.52
2022-12-25T00:42:14.377Z,100443.32
2022-12-25T00:44:42.949Z,100440.57
2022-12-25T00:47:11.626Z,100441.09
2022-12-25T00:49:40.535Z,100442.29
2022-12-25T00:52:09.291Z,100448.00
2022-12-25T00:54:38.190Z,100451.81
2022-12-25T00:57:06.452Z,100455.98
2022-12-25T00:59:35.183Z,100459.06
2022-12-25T01:02:22.395Z,100462.14
2022-12-25T01:05:21.601Z,100466.60
2022-12-25T01:07:49.934Z,100470.55
2022-12-25T01:10:24.222Z,100476.77
2022-12-25T01:12:52.728Z,100478.29
2022-12-25T01:15:21.441Z,100481.21
2022-12-25T01:17:49.818Z,100483.25
2022-12-25T01:20:19.087Z,100486.59
2022-12-25T01:22:47.640Z,100483.91
2022-12-25T01:25:16.469Z,100482.33
2022-12-25T01:27:44.898Z,100481.48
2022-12-25T01:30:13.597Z,100475.60
2022-12-25T01:32:41.893Z,100467.85
2022-12-25T01:35:10.273Z,100470.08
2022-12-25T01:37:39.048Z,100472.61
2022-12-25T01:40:08.783Z,100476.36
2022-12-25T01:42:37.105Z,100479.08
2022-12-25T01:45:17.825Z,100476.13
2022-12-25T01:47:46.374Z,100480.04
2022-12-25T01:50:15.156Z,100478.06
2022-12-25T01:52:43.611Z,100474.06
2022-12-25T01:55:12.503Z,100474.70
2022-12-25T01:57:42.895Z,100481.20
2022-12-25T02:00:12.609Z,100488.05
2022-12-25T02:02:42.828Z,100488.86
2022-12-25T02:05:32.856Z,100489.86
2022-12-25T02:08:13.588Z,100495.16
2022-12-25T02:10:45.065Z,100500.79
2022-12-25T02:13:16.047Z,100501.95
2022-12-25T02:16:13.886Z,100499.52
2022-12-25T02:19:01.375Z,100497.92
2022-12-25T02:22:03.786Z,100504.77
2022-12-25T02:25:19.891Z,100507.11
2022-12-25T02:28:11.124Z,100509.86
2022-12-25T02:30:49.934Z,100509.82
2022-12-25T02:33:47.708Z,100513.23
2022-12-25T02:36:23.356Z,100519.89
2022-12-25T02:39:16.203Z,100515.06
2022-12-25T02:41:48.010Z,100516.92
2022-12-25T02:44:40.952Z,100515.20
2022-12-25T02:47:30.348Z,100511.67
2022-12-25T02:50:18.957Z,100503.89
2022-12-25T02:53:07.367Z,100508.03
2022-12-25T02:56:04.186Z,100509.46
2022-12-25T02:58:57.227Z,100513.70
2022-12-25T03:01:50.256Z,100510.39
2022-12-25T03:04:54.619Z,100512.19
2022-12-25T03:07:26.012Z,100515.55
2022-12-25T03:10:22.562Z,100517.89
2022-12-25T03:13:05.393Z,100525.73
2022-12-25T03:15:54.059Z,100530.70
2022-12-25T03:18:27.078Z,100536.14
2022-12-25T03:21:15.205Z,100533.86
2022-12-25T03:24:07.042Z,100535.86
2022-12-25T03:26:54.008Z,100545.62
2022-12-25T03:29:43.622Z,100544.02
2022-12-25T03:32:34.962Z,100541.59
2022-12-25T03:35:24.265Z,100542.09
2022-12-25T03:38:48.822Z,100543.58
2022-12-25T03:41:45.536Z,100546.30
2022-12-25T03:44:53.793Z,100548.55
2022-12-25T03:47:37.460Z,100554.90
2022-12-25T03:50:52.884Z,100557.52
2022-12-25T03:53:48.234Z,100554.48
2022-12-25T03:56:37.504Z,100546.30
2022-12-25T03:59:24.896Z,100549.67
2022-12-25T04:02:11.819Z,100555.30
2022-12-25T04:05:17.218Z,100552.91
2022-12-25T04:08:04.275Z,100549.33
2022-12-25T04:10:51.801Z,100542.85
2022-12-25T04:13:38.928Z,100543.27
2022-12-25T04:16:25.991Z,100540.63
2022-12-25T04:19:32.899Z,100547.70
2022-12-25T04:22:19.712Z,100540.93
2022-12-25T04:25:06.733Z,100546.81
2022-12-25T04:27:53.565Z,100556.32
2022-12-25T04:30:40.690Z,100564.37
2022-12-25T04:33:27.559Z,100572.39
2022-12-25T04:36:14.094Z,100570.98
2022-12-25T04:38:42.747Z,100573.50
2022-12-25T04:41:13.032Z,100575.07
2022-12-25T04:43:41.469Z,100576.27
2022-12-25T04:46:09.944Z,100583.45
2022-12-25T04:48:38.395Z,100584.92
2022-12-25T04:51:15.459Z,100586.36
2022-12-25T04:53:45.240Z,100586.08
2022-12-25T04:56:15.137Z,100588.77
2022-12-25T04:58:44.674Z,100589.27
2022-12-25T05:01:14.596Z,100591.88
2022-12-25T05:03:44.077Z,100597.41
2022-12-25T05:06:12.740Z,100597.79
2022-12-25T05:08:41.226Z,100603.79
2022-12-25T05:11:12.892Z,100603.99
2022-12-25T05:13:41.912Z,100606.20
2022-12-25T05:16:15.439Z,100602.27
2022-12-25T05:18:44.408Z,100601.01
2022-12-25T05:21:13.137Z,100602.21
2022-12-25T05:23:48.899Z,100596.11
2022-12-25T05:26:23.771Z,100595.20
2022-12-25T05:28:52.371Z,100595.59
2022-12-25T05:31:21.711Z,100595.37
2022-12-25T05:33:52.096Z,100596.02
2022-12-25T05:36:20.479Z,100596.64
2022-12-25T05:38:48.916Z,100602.10
2022-12-25T05:41:17.300Z,100609.27
2022-12-25T05:43:46.216Z,100616.25
2022-12-25T05:46:15.128Z,100619.20
2022-12-25T05:48:44.289Z,100622.09
2022-12-25T05:51:14.739Z,100623.34
2022-12-25T05:53:44.234Z,100628.19
2022-12-25T05:56:13.146Z,100638.27
2022-12-25T05:58:41.659Z,100640.11
2022-12-25T06:01:16.259Z,100643.52
2022-12-25T06:03:44.992Z,100646.80
2022-12-25T06:06:13.972Z,100653.31
2022-12-25T06:08:42.680Z,100659.34
2022-12-25T06:11:12.710Z,100669.20
2022-12-25T06:13:41.101Z,100670.79
2022-12-25T06:16:12.309Z,100675.45
2022-12-25T06:18:44.264Z,100677.22
2022-12-25T06:21:14.955Z,100680.20
2022-12-25T06:23:43.895Z,100680.10
2022-12-25T06:26:16.099Z,100689.58
2022-12-25T06:28:45.665Z,100695.10
2022-12-25T06:31:17.023Z,100694.56
2022-12-25T06:33:46.015Z,100699.05
2022-12-25T06:36:20.406Z,100700.11
2022-12-25T06:38:49.417Z,100704.41
2022-12-25T06:41:26.265Z,100711.47
2022-12-25T06:43:57.311Z,100718.98
2022-12-25T06:46:29.298Z,100720.50
2022-12-25T06:48:59.352Z,100723.40
2022-12-25T06:51:32.566Z,100730.42
2022-12-25T06:54:04.270Z,100734.86
2022-12-25T06:56:34.453Z,100735.66
2022-12-25T06:59:08.564Z,100737.36
2022-12-25T07:01:37.467Z,100733.73
2022-12-25T07:04:16.192Z,100732.33
2022-12-25T07:06:44.489Z,100731.46
2022-12-25T07:09:13.067Z,100730.45
2022-12-25T07:11:41.583Z,100730.79
2022-12-25T07:14:23.778Z,100733.35
2022-12-25T07:16:53.076Z,100738.36
2022-12-25T07:19:21.654Z,100744.01
2022-12-25T07:21:50.182Z,100740.70
2022-12-25T07:24:23.019Z,100739.64
2022-12-25T07:26:52.335Z,100736.46
2022-12-25T07:29:20.740Z,100735.88
2022-12-25T07:31:50.015Z,100736.91
2022-12-25T07:34:19.530Z,100735.83
2022-12-25T07:36:47.878Z,100734.96
2022-12-25T07:39:17.203Z,100731.71
2022-12-25T07:41:45.513Z,100732.38
2022-12-25T07:44:14.202Z,100724.02
2022-12-25T07:46:43.293Z,100722.73
2022-12-25T07:49:12.396Z,100726.79
2022-12-25T07:51:41.047Z,100730.94
2022-12-25T07:54:09.361Z,100730.42
2022-12-25T07:56:37.855Z,100725.88
2022-12-25T07:59:06.158Z,100728.93
2022-12-25T08:01:34.875Z,100729.94
2022-12-25T08:04:04.742Z,100731.23
2022-12-25T08:06:35.118Z,100731.84
2022-12-25T08:09:12.988Z,100732.99
2022-12-25T08:11:46.857Z,100743.25
2022-12-25T08:14:15.743Z,100748.60
2022-12-25T08:16:44.983Z,100748.94
2022-12-25T08:19:14.931Z,100755.64
2022-12-25T08:21:43.377Z,100752.84
2022-12-25T08:24:12.039Z,100753.46
2022-12-25T08:26:40.651Z,100759.93
2022-12-25T08:29:08.962Z,100761.44
2022-12-25T08:31:42.481Z,100762.36
2022-12-25T08:34:14.528Z,100760.73
2022-12-25T08:36:43.138Z,100763.31
2022-12-25T08:39:11.480Z,100760.88
2022-12-25T08:41:40.493Z,100768.11
2022-12-25T08:44:11.184Z,100772.06
2022-12-25T08:46:40.148Z,100773.76
2022-12-25T08:49:08.652Z,100772.19
2022-12-25T08:51:37.756Z,100777.94
2022-12-25T08:54:06.123Z,100784.88
2022-12-25T08:56:34.493Z,100790.81
2022-12-25T08:59:03.045Z,100795.13
2022-12-25T09:01:31.687Z,100800.19
2022-12-25T09:04:25.382Z,100800.19
2022-12-25T09:06:54.323Z,100807.80
2022-12-25T09:09:27.752Z,100805.59
2022-12-25T09:11:56.251Z,100804.86
2022-12-25T09:14:24.565Z,100805.94
2022-12-25T09:16:52.997Z,100801.45
2022-12-25T09:19:22.397Z,100803.52
2022-12-25T09:21:50.733Z,100808.37
2022-12-25T09:24:18.961Z,100810.52
2022-12-25T09:26:47.315Z,100807.90
2022-12-25T09:29:16.905Z,100808.41
2022-12-25T09:31:45.260Z,100811.70
2022-12-25T09:34:17.266Z,100812.27
2022-12-25T09:36:47.443Z,100814.34
2022-12-25T09:39:15.807Z,100813.09
2022-12-25T09:41:53.491Z,100816.17
2022-12-25T09:44:26.142Z,100816.38
2022-12-25T09:47:06.156Z,100818.15
2022-12-25T09:49:40.704Z,100825.39
2022-12-25T09:52:17.729Z,100836.78
2022-12-25T09:54:49.315Z,100836.26
2022-12-25T09:57:17.683Z,100832.11
2022-12-25T09:59:47.799Z,100828.36
2022-12-25T10:02:57.833Z,100834.00
2022-12-25T10:06:05.329Z,100825.05
2022-12-25T10:08:51.874Z,100822.12
2022-12-25T10:11:29.065Z,100820.55
2022-12-25T10:14:03.707Z,100815.74
2022-12-25T10:16:40.510Z,100814.71
2022-12-25T10:19:20.717Z,100811.11
2022-12-25T10:21:53.072Z,100809.04
2022-12-25T10:24:47.564Z,100812.45
2022-12-25T10:27:39.019Z,100800.98
2022-12-25T10:30:16.247Z,100798.83
2022-12-25T10:32:46.913Z,100806.02
2022-12-25T10:35:19.067Z,100807.16
2022-12-25T10:37:55.962Z,100803.75
2022-12-25T10:40:24.263Z,100802.02
2022-12-25T10:43:03.987Z,100796.27
2022-12-25T10:45:46.301Z,100791.86
2022-12-25T10:48:28.312Z,100789.50
2022-12-25T10:50:57.614Z,100789.11
2022-12-25T10:53:28.550Z,100786.94
2022-12-25T10:56:00.961Z,100784.62
2022-12-25T10:58:30.228Z,100788.75
2022-12-25T11:01:05.314Z,100789.64
2022-12-25T11:03:38.202Z,100790.23
2022-12-25T11:06:29.849Z,100795.15
2022-12-25T11:09:01.311Z,100791.02
2022-12-25T11:11:30.960Z,100785.75
2022-12-25T11:14:02.252Z,100788.08
2022-12-25T11:16:38.659Z,100788.40
2022-12-25T11:19:25.570Z,100789.52
2022-12-25T11:21:56.859Z,100788.77
2022-12-25T11:24:33.303Z,100784.98
2022-12-25T11:27:06.754Z,100790.29
2022-12-25T11:29:46.963Z,100785.48
2022-12-25T11:32:33.892Z,100784.42
2022-12-25T11:35:03.243Z,100785.17
2022-12-25T11:37:42.616Z,100782.96
2022-12-25T11:40:22.756Z,100793.61
2022-12-25T11:42:56.108Z,100797.61
2022-12-25T11:45:30.611Z,100800.65
2022-12-25T11:48:24.325Z,100797.84
2022-12-25T11:51:00.441Z,100788.67
2022-12-25T11:53:32.119Z,100789.11
2022-12-25T11:56:06.624Z,100793.81
2022-12-25T11:58:49.404Z,100795.77
2022-12-25T12:01:35.809Z,100791.99
2022-12-25T12:04:43.582Z,100783.38
2022-12-25T12:07:25.562Z,100782.77
2022-12-25T12:10:12.412Z,100786.77
2022-12-25T12:13:02.647Z,100789.37
2022-12-25T12:15:45.823Z,100795.37
2022-12-25T12:18:29.580Z,100793.41
2022-12-25T12:21:09.700Z,100795.06
2022-12-25T12:23:56.263Z,100783.08
2022-12-25T12:26:27.952Z,100776.30
2022-12-25T12:29:00.468Z,100772.91
2022-12-25T12:31:49.205Z,100775.82
2022-12-25T12:34:50.084Z,100776.63
2022-12-25T12:37:32.204Z,100775.57
2022-12-25T12:40:01.729Z,100774.13
2022-12-25T12:42:36.298Z,100769.11
2022-12-25T12:45:18.928Z,100765.11
2022-12-25T12:47:49.731Z,100768.41
2022-12-25T12:50:32.422Z,100770.82
2022-12-25T12:53:27.836Z,100765.70
2022-12-25T12:55:57.357Z,100759.18
2022-12-25T12:58:34.063Z,100757.23
2022-12-25T13:01:14.658Z,100758.17
2022-12-25T13:04:14.326Z,100757.21
2022-12-25T13:06:46.581Z,100743.58
2022-12-25T13:09:17.757Z,100736.64
2022-12-25T13:11:46.919Z,100732.89
2022-12-25T13:14:18.871Z,100730.70
2022-12-25T13:16:50.320Z,100728.64
2022-12-25T13:19:24.521Z,100722.09
2022-12-25T13:21:59.663Z,100721.88
2022-12-25T13:24:30.800Z,100723.66
2022-12-25T13:27:00.207Z,100726.39
2022-12-25T13:29:46.854Z,100725.54
2022-12-25T13:32:22.890Z,100729.16
2022-12-25T13:34:52.202Z,100730.27
2022-12-25T13:37:25.027Z,100725.03
2022-12-25T13:40:07.103Z,100725.07
2022-12-25T13:42:42.453Z,100727.35
2022-12-25T13:45:13.829Z,100730.48
2022-12-25T13:47:43.634Z,100733.61
2022-12-25T13:50:21.233Z,100727.12
2022-12-25T13:52:50.459Z,100730.41
2022-12-25T13:55:29.375Z,100736.56
2022-12-25T13:58:03.909Z,100729.67
2022-12-25T14:00:40.100Z,100726.44
2022-12-25T14:03:18.855Z,100725.23
2022-12-25T14:05:59.742Z,100714.60
2022-12-25T14:08:33.934Z,100711.89
2022-12-25T14:11:04.967Z,100706.77
2022-12-25T14:13:37.986Z,100709.90
2022-12-25T14:16:07.640Z,100713.20
2022-12-25T14:18:36.128Z,100711.16
2022-12-25T14:21:15.259Z,100714.48
2022-12-25T14:23:45.376Z,100713.81
2022-12-25T14:26:26.525Z,100717.29
2022-12-25T14:29:15.749Z,100720.22
2022-12-25T14:31:47.451Z,100727.16
2022-12-25T14:34:22.852Z,100727.40
2022-12-25T14:36:52.968Z,100728.48
2022-12-25T14:39:35.170Z,100736.39
2022-12-25T14:42:21.853Z,100737.63
2022-12-25T14:44:58.185Z,100742.98
2022-12-25T14:47:27.026Z,100742.14
2022-12-25T14:49:56.138Z,100737.67
2022-12-25T14:52:45.429Z,100736.89
2022-12-25T14:55:21.317Z,100739.38
2022-12-25T14:57:54.139Z,100745.96
2022-12-25T15:00:36.904Z,100744.27
2022-12-25T15:03:18.091Z,100733.44
2022-12-25T15:06:28.510Z,100724.00
2022-12-25T15:08:59.462Z,100716.84
2022-12-25T15:11:28.625Z,100709.65
2022-12-25T15:13:57.144Z,100711.39
2022-12-25T15:16:31.423Z,100705.77
2022-12-25T15:19:01.907Z,100702.65
2022-12-25T15:21:33.686Z,100709.89
2022-12-25T15:24:02.773Z,100706.99
2022-12-25T15:26:32.663Z,100703.73
2022-12-25T15:29:01.364Z,100692.72
2022-12-25T15:31:32.180Z,100688.79
2022-12-25T15:34:03.766Z,100686.39
2022-12-25T15:36:33.022Z,100685.73
2022-12-25T15:39:01.550Z,100688.17
2022-12-25T15:41:55.455Z,100702.27
2022-12-25T15:44:24.768Z,100703.30
2022-12-25T15:46:53.432Z,100695.05
2022-12-25T15:49:21.930Z,100688.05
2022-12-25T15:51:50.541Z,100685.47
2022-12-25T15:54:19.412Z,100689.45
2022-12-25T15:56:47.728Z,100689.81
2022-12-25T15:59:18.469Z,100695.15
2022-12-25T16:01:50.093Z,100710.46
2022-12-25T16:04:19.048Z,100707.17
2022-12-25T16:06:48.108Z,100705.64
2022-12-25T16:09:18.576Z,100709.41
2022-12-25T16:11:48.281Z,100698.91
2022-12-25T16:14:17.051Z,100700.46
2022-12-25T16:16:46.925Z,100702.68
2022-12-25T16:19:15.520Z,100705.23
2022-12-25T16:21:46.514Z,100695.98
2022-12-25T16:24:15.385Z,100703.36
2022-12-25T16:26:44.203Z,100704.70
2022-12-25T16:29:12.961Z,100694.70
2022-12-25T16:31:41.745Z,100687.83
2022-12-25T16:34:10.493Z,100692.77
2022-12-25T16:36:39.420Z,100696.02
2022-12-25T16:39:08.613Z,100694.96
2022-12-25T16:41:37.063Z,100687.21
2022-12-25T16:44:09.712Z,100690.97
2022-12-25T16:46:40.865Z,100701.95
2022-12-25T16:49:09.786Z,100697.31
2022-12-25T16:51:38.265Z,100693.70
2022-12-25T16:54:07.019Z,100692.33
2022-12-25T16:56:36.827Z,100689.40
2022-12-25T16:59:05.426Z,100677.16
2022-12-25T17:01:33.857Z,100665.98
2022-12-25T17:04:02.605Z,100670.27
2022-12-25T17:06:31.056Z,100665.96
2022-12-25T17:09:00.895Z,100657.54
2022-12-25T17:11:32.592Z,100646.86
2022-12-25T17:14:03.960Z,100644.27
2022-12-25T17:16:35.430Z,100644.25
2022-12-25T17:19:13.313Z,100639.27
2022-12-25T17:21:42.054Z,100631.68
2022-12-25T17:24:10.789Z,100635.30
2022-12-25T17:26:41.105Z,100632.38
2022-12-25T17:29:10.104Z,100633.40
2022-12-25T17:31:40.049Z,100629.79
2022-12-25T17:34:09.925Z,100625.15
2022-12-25T17:36:38.472Z,100616.02
2022-12-25T17:39:06.984Z,100605.83
2022-12-25T17:41:35.418Z,100592.94
2022-12-25T17:44:04.221Z,100582.98
2022-12-25T17:46:32.839Z,100589.31
2022-12-25T17:49:02.324Z,100592.41
2022-12-25T17:51:32.081Z,100594.29
2022-12-25T17:54:05.670Z,100587.92
2022-12-25T17:56:34.679Z,100593.23
2022-12-25T17:59:08.853Z,100597.70
2022-12-25T18:01:39.251Z,100599.77
2022-12-25T18:04:07.935Z,100598.88
2022-12-25T18:06:37.076Z,100585.66
2022-12-25T18:09:06.763Z,100580.66
2022-12-25T18:11:42.619Z,100584.44
2022-12-25T18:14:14.765Z,100586.50
2022-12-25T18:16:45.752Z,100577.87
2022-12-25T18:19:15.402Z,100571.13
2022-12-25T18:21:43.774Z,100562.66
2022-12-25T18:24:12.479Z,100555.09
2022-12-25T18:26:40.974Z,100550.39
2022-12-25T18:29:09.327Z,100560.70
2022-12-25T18:31:38.015Z,100564.84
2022-12-25T18:34:07.299Z,100566.02
2022-12-25T18:36:36.026Z,100554.13
2022-12-25T18:39:04.496Z,100543.29
2022-12-25T18:41:52.808Z,100539.65
2022-12-25T18:44:21.190Z,100536.55
2022-12-25T18:46:49.579Z,100539.11
2022-12-25T18:49:18.249Z,100535.17
2022-12-25T18:51:46.780Z,100536.16
2022-12-25T18:54:15.462Z,100527.90
2022-12-25T18:56:43.891Z,100523.24
2022-12-25T18:59:12.348Z,100518.43
2022-12-25T19:01:41.099Z,100513.79
2022-12-25T19:04:13.080Z,100509.15
2022-12-25T19:06:42.021Z,100507.06
2022-12-25T19:09:10.883Z,100501.04
2022-12-25T19:11:46.515Z,100493.29
2022-12-25T19:14:16.401Z,100489.33
2022-12-25T19:16:45.464Z,100484.33
2022-12-25T19:19:15.105Z,100475.55
2022-12-25T19:21:44.160Z,100477.60
2022-12-25T19:24:12.676Z,100467.25
2022-12-25T19:26:41.460Z,100456.94
2022-12-25T19:29:10.638Z,100456.41
2022-12-25T19:31:39.512Z,100451.94
2022-12-25T19:34:09.613Z,100446.26
2022-12-25T19:36:39.226Z,100438.85
2022-12-25T19:39:09.061Z,100435.93
2022-12-25T19:41:38.625Z,100435.93
2022-12-25T19:44:09.253Z,100431.46
2022-12-25T19:46:43.507Z,100430.94
2022-12-25T19:49:14.144Z,100428.54
2022-12-25T19:51:46.260Z,100425.27
2022-12-25T19:54:16.816Z,100418.05
2022-12-25T19:56:45.580Z,100408.59
2022-12-25T19:59:15.252Z,100402.23
2022-12-25T20:01:44.389Z,100386.77
2022-12-25T20:04:13.527Z,100386.75
2022-12-25T20:06:42.983Z,100381.06
2022-12-25T20:09:15.137Z,100378.48
2022-12-25T20:11:44.042Z,100376.91
2022-12-25T20:14:16.753Z,100374.66
2022-12-25T20:16:46.900Z,100380.67
2022-12-25T20:19:16.952Z,100379.65
2022-12-25T20:21:46.666Z,100373.11
2022-12-25T20:24:15.636Z,100369.33
2022-12-25T20:26:47.660Z,100365.38
2022-12-25T20:29:16.719Z,100366.91
2022-12-25T20:31:45.225Z,100365.39
2022-12-25T20:34:14.188Z,100361.77
2022-12-25T20:36:44.622Z,100350.59
2022-12-25T20:39:13.735Z,100341.96
2022-12-25T20:41:42.366Z,100329.95
2022-12-25T20:44:11.097Z,100324.63
2022-12-25T20:46:39.800Z,100316.21
2022-12-25T20:49:08.286Z,100322.60
2022-12-25T20:51:37.311Z,100321.73
2022-12-25T20:54:08.131Z,100318.80
2022-12-25T20:56:38.301Z,100322.75
2022-12-25T20:59:06.839Z,100319.30
2022-12-25T21:01:35.784Z,100320.17
2022-12-25T21:04:04.497Z,100319.69
2022-12-25T21:06:34.564Z,100326.57
2022-12-25T21:09:03.059Z,100324.15
2022-12-25T21:11:32.217Z,100320.23
2022-12-25T21:14:01.060Z,100315.23
2022-12-25T21:16:30.315Z,100317.83
2022-12-25T21:18:59.244Z,100316.66
2022-12-25T21:21:28.304Z,100316.83
2022-12-25T21:23:57.707Z,100314.45
2022-12-25T21:26:29.176Z,100313.77
2022-12-25T21:29:00.632Z,100316.70
2022-12-25T21:31:31.006Z,100318.96
2022-12-25T21:34:00.132Z,100313.16
2022-12-25T21:36:34.641Z,100312.30
2022-12-25T21:39:06.730Z,100314.54
2022-12-25T21:41:40.371Z,100318.84
2022-12-25T21:44:10.648Z,100316.30
2022-12-25T21:46:39.599Z,100314.25
2022-12-25T21:49:09.552Z,100307.91
2022-12-25T21:51:56.395Z,100307.90
2022-12-25T21:54:25.359Z,100312.73
2022-12-25T21:56:53.740Z,100309.67
2022-12-25T21:59:23.228Z,100305.05
2022-12-25T22:01:53.216Z,100306.44
2022-12-25T22:04:23.370Z,100303.17
2022-12-25T22:07:24.862Z,100300.27
2022-12-25T22:09:53.784Z,100286.53
2022-12-25T22:12:41.343Z,100283.44
2022-12-25T22:15:10.690Z,100282.41
2022-12-25T22:17:59.313Z,100272.45
2022-12-25T22:20:31.261Z,100265.61
2022-12-25T22:22:59.765Z,100251.86
2022-12-25T22:25:28.291Z,100240.35
2022-12-25T22:27:56.817Z,100228.99
2022-12-25T22:30:29.537Z,100230.38
2022-12-25T22:32:59.068Z,100228.48
2022-12-25T22:35:27.657Z,100218.16
2022-12-25T22:37:56.536Z,100216.09
2022-12-25T22:40:25.283Z,100210.94
2022-12-25T22:42:55.795Z,100210.91
2022-12-25T22:45:24.911Z,100199.56
2022-12-25T22:47:53.471Z,100196.10
2022-12-25T22:50:22.335Z,100192.98
2022-12-25T22:52:51.010Z,100201.74
2022-12-25T22:55:20.557Z,100198.45
2022-12-25T22:57:49.446Z,100199.63
2022-12-25T23:00:18.227Z,100186.52
2022-12-25T23:02:46.780Z,100190.79
2022-12-25T23:05:16.097Z,100192.46
2022-12-25T23:07:44.544Z,100198.48
2022-12-25T23:10:13.233Z,100201.52
2022-12-25T23:13:00.454Z,100187.23
2022-12-25T23:15:29.229Z,100176.04
2022-12-25T23:18:16.634Z,100179.14
2022-12-25T23:21:03.961Z,100173.82
2022-12-25T23:23:50.981Z,100172.98
2022-12-25T23:26:20.952Z,100163.89
2022-12-25T23:29:08.201Z,100153.06
2022-12-25T23:31:40.231Z,100148.94
2022-12-25T23:34:10.908Z,100144.81
2022-12-25T23:36:39.367Z,100145.33
2022-12-25T23:39:10.453Z,100160.47
2022-12-25T23:41:40.998Z,100152.89
2022-12-25T23:44:11.669Z,100159.77
2022-12-25T23:46:52.757Z,100153.07
2022-12-25T23:49:23.276Z,100140.34
2022-12-25T23:51:52.678Z,100138.09
2022-12-25T23:54:24.822Z,100120.52
2022-12-25T23:56:54.143Z,100101.45
2022-12-25T23:59:22.718Z,100091.81
